Time;durP1;ratioP1;P1;durP2;ratioP2;P2;SDS_P1;SDS_P2;PMS_P1;PMS_P2;Temp;Humidity;BMP_temperature;BMP_pressure;BME280_temperature;BME280_humidity;BME280_pressure;Samples;Min_cycle;Max_cycle;Signal;HPM_P1;HPM_P2
2023/07/10 00:01:26;;;;;;;9.60;5.67;;;;;;;20.94;70.61;95347.72;5116251;28;20450;-80
2023/07/10 00:03:55;;;;;;;5.73;4.70;;;;;;;20.92;70.30;95338.25;5116472;28;20444;-79
2023/07/10 00:06:22;;;;;;;7.90;5.60;;;;;;;20.89;70.76;95342.13;5116363;28;20441;-80
2023/07/10 00:08:49;;;;;;;6.43;5.10;;;;;;;20.87;70.48;95336.16;5116872;28;20443;-79
2023/07/10 00:11:18;;;;;;;9.43;4.80;;;;;;;20.82;70.56;95327.88;5116081;28;20483;-80
2023/07/10 00:13:46;;;;;;;5.63;5.13;;;;;;;20.84;70.61;95320.50;5116102;28;20442;-80
2023/07/10 00:16:15;;;;;;;7.07;4.80;;;;;;;20.85;71.01;95332.84;5116217;28;20436;-80
2023/07/10 00:18:43;;;;;;;5.97;5.37;;;;;;;20.79;70.83;95327.38;5116556;28;20827;-80
2023/07/10 00:21:11;;;;;;;5.90;4.80;;;;;;;20.79;70.71;95327.38;5116153;28;20443;-80
2023/07/10 00:23:38;;;;;;;5.30;4.80;;;;;;;20.76;70.86;95323.22;5116258;28;20454;-80
2023/07/10 00:26:11;;;;;;;5.83;5.23;;;;;;;20.73;70.58;95327.09;5116159;28;20443;-80
2023/07/10 00:28:38;;;;;;;6.90;5.00;;;;;;;20.71;70.64;95326.44;5116121;28;20530;-80
2023/07/10 00:31:08;;;;;;;8.80;5.10;;;;;;;20.64;70.81;95335.38;5115944;28;20489;-80
2023/07/10 00:33:35;;;;;;;5.67;5.17;;;;;;;20.60;70.87;95328.75;5115964;28;20448;-80
2023/07/10 00:36:01;;;;;;;5.07;4.60;;;;;;;20.63;70.82;95337.19;5115750;28;20474;-80
2023/07/10 00:38:31;;;;;;;5.63;5.13;;;;;;;20.62;71.41;95337.38;5079988;28;20443;-79
2023/07/10 00:41:00;;;;;;;5.30;4.77;;;;;;;20.62;71.19;95334.72;5116152;28;20808;-80
2023/07/10 00:43:32;;;;;;;10.50;6.10;;;;;;;20.58;71.43;95330.75;5115728;28;20926;-80
2023/07/10 00:46:04;;;;;;;7.20;5.27;;;;;;;20.60;71.53;95334.91;5115121;28;20443;-81
2023/07/10 00:48:40;;;;;;;8.43;4.50;;;;;;;20.60;71.26;95334.06;5115726;28;20458;-79
2023/07/10 00:51:15;;;;;;;4.40;4.10;;;;;;;20.57;71.78;95335.25;5115672;28;20531;-80
2023/07/10 00:53:47;;;;;;;4.70;4.40;;;;;;;20.58;71.75;95338.75;5115808;28;20446;-80
2023/07/10 00:56:17;;;;;;;6.60;4.70;;;;;;;20.60;71.01;95339.41;5115291;28;20496;-80
2023/07/10 00:58:46;;;;;;;11.43;5.20;;;;;;;20.62;71.59;95343.53;5115353;28;20998;-80
2023/07/10 01:01:15;;;;;;;4.53;4.13;;;;;;;20.63;70.96;95339.03;5115289;28;20443;-80
2023/07/10 01:03:43;;;;;;;5.40;4.50;;;;;;;20.64;71.15;95340.69;5115406;28;20441;-80
2023/07/10 01:06:13;;;;;;;7.00;4.90;;;;;;;20.62;70.37;95343.53;5115243;28;20967;-80
2023/07/10 01:08:44;;;;;;;6.00;5.40;;;;;;;20.62;71.00;95338.22;5115442;28;20459;-80
2023/07/10 01:11:11;;;;;;;8.17;4.57;;;;;;;20.60;71.36;95339.41;5062542;28;20862;-80
2023/07/10 01:13:42;;;;;;;6.03;4.57;;;;;;;20.55;71.18;95341.78;5114916;28;20436;-80
2023/07/10 01:16:10;;;;;;;5.07;4.67;;;;;;;20.49;71.46;95342.47;5079041;28;20431;-81
2023/07/10 01:18:39;;;;;;;5.90;5.40;;;;;;;20.49;72.41;95342.47;5114993;28;20943;-80
2023/07/10 01:21:13;;;;;;;6.23;4.57;;;;;;;20.48;71.98;95327.50;5114758;28;20443;-80
2023/07/10 01:23:40;;;;;;;5.87;5.30;;;;;;;20.47;72.33;95334.66;5078828;28;20442;-80
2023/07/10 01:26:08;;;;;;;4.87;4.47;;;;;;;20.44;72.79;95336.88;5115121;28;20447;-80
2023/07/10 01:28:35;;;;;;;6.73;5.00;;;;;;;20.36;72.39;95330.56;5114573;28;20451;-80
2023/07/10 01:31:06;;;;;;;5.83;4.77;;;;;;;20.33;72.60;95328.28;5114728;28;20487;-80
2023/07/10 01:33:38;;;;;;;7.00;5.90;;;;;;;20.35;72.33;95333.41;5079236;28;20448;-78
2023/07/10 01:36:07;;;;;;;4.90;4.50;;;;;;;20.33;71.96;95333.59;5114395;28;20482;-81
2023/07/10 01:38:39;;;;;;;5.57;5.03;;;;;;;20.33;72.18;95335.44;5114707;28;20448;-80
2023/07/10 01:41:19;;;;;;;5.10;4.63;;;;;;;20.30;71.68;95333.13;5114473;28;20459;-79
2023/07/10 01:43:46;;;;;;;7.07;5.13;;;;;;;20.20;71.87;95336.03;5114296;28;20942;-79
2023/07/10 01:46:18;;;;;;;6.73;3.63;;;;;;;20.15;72.27;95333.06;5114463;28;20444;-80
2023/07/10 01:48:46;;;;;;;5.03;4.63;;;;;;;19.75;74.07;95331.50;5114574;28;20782;-80
2023/07/10 01:51:12;;;;;;;6.17;5.20;;;;;;;19.75;74.25;95329.69;5114366;28;20482;-80
2023/07/10 01:53:43;;;;;;;7.77;6.83;;;;;;;19.71;75.02;95332.88;5114094;28;20453;-80
2023/07/10 01:56:10;;;;;;;8.20;7.40;;;;;;;19.61;76.49;95332.25;5114376;28;20437;-80
2023/07/10 01:58:37;;;;;;;7.20;6.50;;;;;;;19.50;77.66;95326.28;5114352;28;20449;-79
2023/07/10 02:01:04;;;;;;;8.30;7.50;;;;;;;19.50;78.12;95328.94;5114301;28;20450;-80
2023/07/10 02:03:31;;;;;;;9.90;6.47;;;;;;;19.52;78.41;95333.25;5061718;28;20926;-79
2023/07/10 02:05:57;;;;;;;9.57;7.23;;;;;;;19.50;78.60;95344.91;5113911;28;20441;-79
2023/07/10 02:08:25;;;;;;;6.40;5.87;;;;;;;19.54;78.39;95333.94;5113904;28;20445;-81
2023/07/10 02:10:53;;;;;;;9.63;6.00;;;;;;;19.57;78.15;95342.41;5114010;28;20453;-80
2023/07/10 02:13:20;;;;;;;6.70;6.03;;;;;;;19.61;78.22;95342.88;5113980;28;20448;-80
2023/07/10 02:15:47;;;;;;;6.80;6.10;;;;;;;19.63;78.20;95336.38;5061288;28;20439;-80
2023/07/10 02:18:14;;;;;;;8.60;6.87;;;;;;;19.64;77.90;95339.88;5114103;28;20465;-80
2023/07/10 02:20:41;;;;;;;6.93;6.33;;;;;;;19.63;77.85;95344.38;5113718;28;20439;-80
2023/07/10 02:23:08;;;;;;;7.27;6.00;;;;;;;19.56;78.02;95337.25;5113624;28;20447;-76
2023/07/10 02:25:35;;;;;;;7.13;5.73;;;;;;;19.57;78.41;95347.72;5114048;28;20446;-80
2023/07/10 02:28:04;;;;;;;6.63;6.03;;;;;;;19.59;77.86;95347.56;5113546;28;20874;-81
2023/07/10 02:30:30;;;;;;;10.13;6.03;;;;;;;19.54;77.25;95358.75;5061370;28;20447;-80
2023/07/10 02:32:57;;;;;;;7.60;6.57;;;;;;;19.49;77.72;95355.75;5113525;28;20843;-80
2023/07/10 02:35:24;;;;;;;6.97;5.90;;;;;;;19.42;77.55;95349.47;5113562;28;20471;-78
2023/07/10 02:37:51;;;;;;;6.73;5.77;;;;;;;19.45;77.90;95365.06;5113476;28;20452;-77
2023/07/10 02:40:18;;;;;;;8.20;5.73;;;;;;;19.38;77.61;95359.63;5113780;28;20452;-80
2023/07/10 02:42:44;;;;;;;5.43;4.93;;;;;;;19.37;78.09;95357.97;5113325;28;20450;-79
2023/07/10 02:45:14;;;;;;;5.70;5.20;;;;;;;19.42;77.42;95362.75;5113577;28;20514;-80
2023/07/10 02:47:41;;;;;;;5.37;4.90;;;;;;;19.47;77.35;95365.72;5113445;28;20444;-79
2023/07/10 02:50:10;;;;;;;5.47;5.07;;;;;;;19.44;76.79;95366.06;5115189;28;20450;-80
2023/07/10 02:52:37;;;;;;;9.63;5.47;;;;;;;19.43;76.50;95365.25;5123462;28;20484;-79
2023/07/10 02:55:05;;;;;;;6.40;4.93;;;;;;;19.45;76.19;95359.75;5120443;28;20449;-80
2023/07/10 02:57:32;;;;;;;6.80;5.00;;;;;;;19.42;76.31;95368.09;5117347;28;20446;-80
2023/07/10 02:59:58;;;;;;;5.20;4.80;;;;;;;19.46;76.50;95369.41;5117853;28;20448;-79
2023/07/10 03:02:27;;;;;;;5.37;4.77;;;;;;;19.49;75.69;95367.22;5117567;28;20443;-80
2023/07/10 03:04:54;;;;;;;5.40;4.90;;;;;;;19.47;75.94;95369.22;5118155;28;20450;-80
2023/07/10 03:07:21;;;;;;;5.50;5.00;;;;;;;19.43;75.40;95369.75;5118843;28;20949;-79
2023/07/10 03:09:49;;;;;;;6.30;5.80;;;;;;;19.40;75.17;95364.78;5122670;28;20445;-79
2023/07/10 03:12:16;;;;;;;6.37;5.77;;;;;;;19.41;75.12;95369.09;5067463;28;20472;-79
2023/07/10 03:14:42;;;;;;;6.70;6.10;;;;;;;19.40;75.26;95365.59;5117370;28;20449;-79
2023/07/10 03:17:09;;;;;;;6.20;5.40;;;;;;;19.37;75.02;95378.38;5117646;28;20448;-79
2023/07/10 03:19:37;;;;;;;7.57;5.57;;;;;;;19.33;75.25;95380.56;5117533;28;20444;-80
2023/07/10 03:22:04;;;;;;;8.20;4.73;;;;;;;19.26;75.22;95381.44;5117466;28;20438;-79
2023/07/10 03:24:31;;;;;;;7.13;5.60;;;;;;;19.25;75.62;95385.09;5117702;28;20452;-79
2023/07/10 03:26:59;;;;;;;5.83;5.20;;;;;;;19.34;76.24;95378.75;5117834;28;20459;-79
2023/07/10 03:29:26;;;;;;;8.63;5.47;;;;;;;19.51;75.12;95380.34;5117519;28;20456;-80
2023/07/10 03:31:53;;;;;;;5.40;4.90;;;;;;;19.90;73.96;95382.19;5117414;28;20485;-79
2023/07/10 03:34:19;;;;;;;5.87;5.27;;;;;;;20.30;72.98;95381.09;5117301;28;20447;-79
2023/07/10 03:36:48;;;;;;;5.90;5.00;;;;;;;20.75;70.95;95393.59;5117110;28;20985;-79
2023/07/10 03:39:14;;;;;;;5.07;4.63;;;;;;;21.26;68.50;95385.78;5117348;28;20826;-79
2023/07/10 03:41:41;;;;;;;5.23;4.83;;;;;;;21.65;66.87;95394.34;5064878;28;20450;-79
2023/07/10 03:44:09;;;;;;;5.60;4.43;;;;;;;22.06;65.41;95393.84;5116843;28;20777;-78
2023/07/10 03:46:36;;;;;;;5.80;4.90;;;;;;;22.38;63.77;95394.38;5116883;28;20446;-79
2023/07/10 03:49:03;;;;;;;6.53;4.97;;;;;;;22.64;63.00;95396.50;5117459;28;20454;-79
2023/07/10 03:51:30;;;;;;;4.50;4.10;;;;;;;22.94;62.41;95399.88;5117049;28;20492;-79
2023/07/10 03:53:58;;;;;;;5.50;5.00;;;;;;;23.15;61.08;95397.16;5116835;28;20442;-80
2023/07/10 03:56:25;;;;;;;7.13;5.07;;;;;;;23.37;59.81;95404.09;5116795;28;20448;-80
2023/07/10 03:58:52;;;;;;;5.30;4.80;;;;;;;23.58;59.93;95402.38;5081006;28;20449;-80
2023/07/10 04:01:19;;;;;;;7.70;5.57;;;;;;;23.68;58.58;95409.03;5116789;28;20442;-78
2023/07/10 04:03:46;;;;;;;6.10;4.63;;;;;;;23.72;58.66;95404.13;5116884;28;20444;-80
2023/07/10 04:06:14;;;;;;;5.17;4.73;;;;;;;23.74;59.25;95402.06;5116803;28;20450;-79
2023/07/10 04:08:43;;;;;;;5.20;4.70;;;;;;;23.79;58.44;95421.06;5116832;28;20450;-79
2023/07/10 04:11:14;;;;;;;4.70;4.30;;;;;;;23.82;58.56;95414.47;5116611;28;20449;-79
2023/07/10 04:13:41;;;;;;;5.23;4.80;;;;;;;23.88;58.08;95430.59;5116442;28;20449;-79
2023/07/10 04:16:16;;;;;;;7.53;4.90;;;;;;;23.95;58.11;95417.19;5116397;28;20457;-79
2023/07/10 04:18:44;;;;;;;5.07;4.57;;;;;;;23.98;58.19;95414.94;5116592;28;20445;-79
2023/07/10 04:21:14;;;;;;;6.90;4.30;;;;;;;24.04;58.22;95416.84;5117996;28;20443;-79
2023/07/10 04:23:40;;;;;;;8.53;4.87;;;;;;;24.06;58.26;95422.84;5119911;28;20450;-79
2023/07/10 04:26:07;;;;;;;5.10;4.70;;;;;;;24.09;57.63;95419.75;5119775;28;20443;-79
2023/07/10 04:28:36;;;;;;;7.67;4.80;;;;;;;24.18;58.61;95420.41;5118726;28;20447;-80
2023/07/10 04:31:02;;;;;;;5.10;4.33;;;;;;;24.35;57.89;95415.53;5118625;28;20443;-79
2023/07/10 04:33:29;;;;;;;16.20;5.77;;;;;;;24.07;59.05;95420.97;5065717;28;20478;-80
2023/07/10 04:35:58;;;;;;;9.80;6.27;;;;;;;24.09;60.66;95416.25;5083214;28;20485;-79
2023/07/10 04:38:27;;;;;;;10.00;5.57;;;;;;;24.33;59.64;95417.59;5118776;28;20443;-79
2023/07/10 04:40:55;;;;;;;9.07;5.90;;;;;;;24.60;58.17;95413.94;5118795;28;20855;-79
2023/07/10 04:43:22;;;;;;;9.60;6.30;;;;;;;24.71;57.59;95415.19;5118466;28;20460;-79
2023/07/10 04:45:53;;;;;;;18.00;7.00;;;;;;;24.77;57.76;95417.06;5118409;28;20450;-79
2023/07/10 04:48:19;;;;;;;12.53;6.63;;;;;;;25.00;57.84;95422.06;5117422;28;20449;-78
2023/07/10 04:50:48;;;;;;;13.77;7.20;;;;;;;25.35;56.58;95419.16;5117135;28;20446;-80
2023/07/10 04:53:14;;;;;;;9.13;5.73;;;;;;;25.61;56.51;95417.25;5117482;28;20563;-79
2023/07/10 04:55:41;;;;;;;10.53;6.87;;;;;;;25.96;55.39;95424.22;5116685;28;20450;-80
2023/07/10 04:58:08;;;;;;;8.60;5.83;;;;;;;26.27;54.25;95423.47;5116153;28;20458;-80
2023/07/10 05:00:35;;;;;;;10.53;6.20;;;;;;;26.60;52.94;95426.00;5116840;28;20446;-80
2023/07/10 05:03:04;;;;;;;7.13;5.90;;;;;;;27.00;52.61;95424.75;5117488;28;20431;-80
2023/07/10 05:05:32;;;;;;;6.10;5.50;;;;;;;27.30;51.73;95411.44;5115550;28;20450;-79
2023/07/10 05:07:59;;;;;;;5.73;5.23;;;;;;;27.51;49.28;95417.47;5116561;28;20436;-82
2023/07/10 05:10:27;;;;;;;4.90;4.40;;;;;;;27.73;49.35;95408.75;5134239;28;20450;-82
2023/07/10 05:12:53;;;;;;;5.73;5.23;;;;;;;27.99;48.47;95410.31;5138215;28;20485;-79
2023/07/10 05:15:22;;;;;;;5.33;4.80;;;;;;;28.19;47.70;95404.69;5137978;28;20438;-79
2023/07/10 05:17:49;;;;;;;5.73;4.93;;;;;;;28.41;46.98;95405.06;5137200;28;20439;-79
2023/07/10 05:20:17;;;;;;;4.80;4.50;;;;;;;28.57;46.82;95419.78;5137677;28;20443;-79
2023/07/10 05:22:44;;;;;;;5.60;5.10;;;;;;;28.71;46.06;95406.94;5137224;28;20431;-79
2023/07/10 05:25:12;;;;;;;7.47;4.77;;;;;;;28.85;46.03;95409.22;5137502;28;20447;-80
2023/07/10 05:27:39;;;;;;;9.60;6.03;;;;;;;28.98;46.03;95406.34;5085384;28;20467;-80
2023/07/10 05:30:10;;;;;;;5.17;4.70;;;;;;;29.19;45.18;95414.94;5136376;28;20449;-80
2023/07/10 05:32:37;;;;;;;5.90;5.40;;;;;;;29.36;45.95;95413.19;5137892;28;20501;-80
2023/07/10 05:35:04;;;;;;;11.23;5.90;;;;;;;29.19;47.23;95418.47;5136939;28;20451;-79
2023/07/10 05:37:32;;;;;;;7.00;6.03;;;;;;;29.05;47.18;95416.22;5136662;28;20439;-80
2023/07/10 05:39:59;;;;;;;9.13;5.73;;;;;;;28.70;47.71;95406.13;5133722;28;20447;-80
2023/07/10 05:42:26;;;;;;;7.50;5.80;;;;;;;28.86;47.54;95405.47;5115516;28;20451;-80
2023/07/10 05:44:53;;;;;;;12.00;6.40;;;;;;;28.73;48.51;95415.63;5114630;28;20431;-80
2023/07/10 05:47:19;;;;;;;8.40;6.07;;;;;;;28.78;49.28;95415.75;5121266;28;20445;-78
2023/07/10 05:49:46;;;;;;;7.47;6.60;;;;;;;28.87;49.56;95415.22;5114994;28;20435;-79
2023/07/10 05:52:13;;;;;;;8.30;6.30;;;;;;;28.84;48.39;95407.56;5114262;28;20494;-79
2023/07/10 05:54:41;;;;;;;10.20;6.10;;;;;;;29.04;48.51;95403.75;5114215;28;20801;-76
2023/07/10 05:57:09;;;;;;;8.90;6.63;;;;;;;29.22;47.44;95414.50;5114414;28;20855;-81
2023/07/10 05:59:36;;;;;;;6.30;5.70;;;;;;;28.34;48.12;95413.25;5114170;28;20443;-79
2023/07/10 06:02:02;;;;;;;6.03;5.43;;;;;;;28.35;48.78;95408.69;5114614;28;20797;-80
2023/07/10 06:04:29;;;;;;;8.50;5.83;;;;;;;28.40;49.24;95421.50;5114514;28;20443;-80
2023/07/10 06:06:56;;;;;;;12.67;7.80;;;;;;;28.32;49.55;95412.63;5113988;28;20446;-79
2023/07/10 06:09:23;;;;;;;7.00;6.10;;;;;;;28.51;50.10;95407.22;5114066;28;20450;-79
2023/07/10 06:11:52;;;;;;;9.13;5.60;;;;;;;28.80;48.09;95405.56;5113691;28;20957;-79
2023/07/10 06:14:21;;;;;;;6.37;5.77;;;;;;;28.97;46.96;95407.41;5114057;28;20435;-79
2023/07/10 06:16:53;;;;;;;8.67;6.47;;;;;;;29.18;47.12;95413.28;5113925;28;20442;-79
2023/07/10 06:19:20;;;;;;;6.83;5.87;;;;;;;29.44;46.95;95414.72;5113761;28;20439;-80
2023/07/10 06:21:47;;;;;;;6.80;5.40;;;;;;;29.51;47.53;95419.00;5113550;28;20445;-79
2023/07/10 06:24:14;;;;;;;9.57;6.57;;;;;;;29.57;46.93;95412.66;5113494;28;20486;-79
2023/07/10 06:26:41;;;;;;;8.63;6.10;;;;;;;29.79;45.83;95414.78;5113357;28;20446;-80
2023/07/10 06:29:09;;;;;;;7.53;6.70;;;;;;;29.55;46.70;95413.97;5113771;28;20438;-80
2023/07/10 06:31:38;;;;;;;11.03;6.33;;;;;;;29.80;45.83;95417.25;5113826;28;20446;-79
2023/07/10 06:34:07;;;;;;;8.93;7.50;;;;;;;29.89;45.86;95412.28;5113727;28;20484;-80
2023/07/10 06:36:34;;;;;;;8.33;6.57;;;;;;;30.15;46.01;95403.66;5060854;28;20827;-79
2023/07/10 06:39:01;;;;;;;12.53;7.33;;;;;;;30.37;44.36;95421.97;5113370;28;20454;-80
2023/07/10 06:41:28;;;;;;;14.50;7.47;;;;;;;30.11;44.91;95416.03;5113775;28;20439;-79
2023/07/10 06:43:55;;;;;;;9.80;6.97;;;;;;;29.67;45.58;95419.34;5112899;28;20447;-80
2023/07/10 06:46:25;;;;;;;12.17;8.40;;;;;;;29.82;46.13;95419.72;5113895;28;20439;-80
2023/07/10 06:48:52;;;;;;;9.80;7.40;;;;;;;29.75;46.01;95424.41;5113667;28;20499;-80
2023/07/10 06:51:19;;;;;;;9.97;6.87;;;;;;;29.92;46.64;95430.75;5113494;28;20442;-80
2023/07/10 06:53:45;;;;;;;10.47;7.57;;;;;;;30.08;46.71;95423.81;5113144;28;20474;-80
2023/07/10 06:56:12;;;;;;;16.97;7.40;;;;;;;29.68;45.73;95423.69;5113958;28;20443;-79
2023/07/10 06:58:39;;;;;;;17.10;8.00;;;;;;;29.98;45.69;95418.13;5113670;28;20443;-81
2023/07/10 07:01:09;;;;;;;9.50;7.23;;;;;;;30.30;45.04;95416.69;5113186;28;20941;-80
2023/07/10 07:03:40;;;;;;;12.53;6.13;;;;;;;30.74;44.73;95409.72;5113198;28;20450;-80
2023/07/10 07:06:10;;;;;;;8.93;6.80;;;;;;;30.80;44.10;95414.16;5113189;28;20957;-80
2023/07/10 07:08:39;;;;;;;12.27;8.37;;;;;;;30.72;43.83;95405.59;5113584;28;20964;-79
2023/07/10 07:11:06;;;;;;;8.13;6.60;;;;;;;30.78;44.22;95407.34;5113204;28;20453;-79
2023/07/10 07:13:32;;;;;;;7.87;6.17;;;;;;;30.98;45.23;95398.75;5113305;28;20575;-79
2023/07/10 07:15:59;;;;;;;17.00;6.70;;;;;;;31.13;43.62;95409.84;5113295;28;20447;-80
2023/07/10 07:18:26;;;;;;;12.23;6.53;;;;;;;31.16;42.62;95409.38;5113185;28;20949;-80
2023/07/10 07:20:54;;;;;;;9.90;6.80;;;;;;;30.75;43.73;95411.34;5077099;28;20436;-80
2023/07/10 07:23:21;;;;;;;8.63;7.63;;;;;;;30.43;44.80;95405.59;5113323;28;20854;-80
2023/07/10 07:25:48;;;;;;;13.70;7.70;;;;;;;29.74;45.88;95407.34;5113231;28;20454;-80
2023/07/10 07:28:15;;;;;;;12.13;7.07;;;;;;;29.93;46.40;95402.63;5113506;28;20443;-80
2023/07/10 07:30:47;;;;;;;14.63;6.63;;;;;;;29.54;47.32;95391.50;5113250;28;20453;-80
2023/07/10 07:33:14;;;;;;;10.80;6.70;;;;;;;29.64;47.55;95401.72;5113442;28;20912;-80
2023/07/10 07:35:41;;;;;;;10.50;7.70;;;;;;;29.07;48.38;95384.38;5076732;28;20521;-79
2023/07/10 07:38:10;;;;;;;6.83;6.10;;;;;;;29.11;47.72;95386.38;5113094;28;20794;-80
2023/07/10 07:40:37;;;;;;;7.93;6.10;;;;;;;29.10;48.09;95389.31;5112882;28;20949;-80
2023/07/10 07:43:04;;;;;;;12.33;6.43;;;;;;;29.43;47.62;95383.34;5112837;28;20451;-79
2023/07/10 07:45:31;;;;;;;9.00;7.07;;;;;;;29.64;48.57;95387.38;5112979;28;20855;-80
2023/07/10 07:47:58;;;;;;;9.30;6.63;;;;;;;29.92;47.99;95382.84;5060595;28;20847;-80
2023/07/10 07:50:24;;;;;;;9.60;7.13;;;;;;;30.09;48.87;95384.84;5113272;28;20454;-80
2023/07/10 07:52:54;;;;;;;6.37;5.40;;;;;;;30.27;44.80;95379.25;5113621;28;20471;-80
2023/07/10 07:55:23;;;;;;;10.20;5.60;;;;;;;30.05;44.68;95381.78;5118949;28;20460;-80
2023/07/10 07:57:50;;;;;;;6.43;5.80;;;;;;;30.19;44.25;95377.75;5116657;28;20443;-81
2023/07/10 08:00:17;;;;;;;6.20;5.40;;;;;;;30.42;43.56;95376.03;5116648;28;20445;-80
2023/07/10 08:02:44;;;;;;;6.00;5.40;;;;;;;30.66;42.77;95376.78;5116667;28;20439;-79
2023/07/10 08:05:10;;;;;;;5.40;4.40;;;;;;;30.89;42.32;95376.63;5116779;28;20439;-80
2023/07/10 08:07:37;;;;;;;6.67;5.30;;;;;;;30.78;40.86;95372.09;5116660;28;20812;-80
2023/07/10 08:10:05;;;;;;;8.97;5.73;;;;;;;30.66;40.90;95377.59;5118750;28;20557;-80
2023/07/10 08:12:33;;;;;;;6.20;5.60;;;;;;;30.85;41.68;95369.25;5117182;28;20459;-81
2023/07/10 08:15:00;;;;;;;8.50;5.77;;;;;;;30.89;41.31;95367.69;5116209;28;20439;-80
2023/07/10 08:17:27;;;;;;;6.43;5.10;;;;;;;30.87;41.74;95367.91;5116811;28;20446;-81
2023/07/10 08:19:53;;;;;;;7.53;5.03;;;;;;;30.90;41.98;95364.72;5063794;28;20804;-80
2023/07/10 08:22:20;;;;;;;5.13;4.73;;;;;;;30.84;40.54;95357.56;5116224;28;20442;-81
2023/07/10 08:24:47;;;;;;;6.73;5.27;;;;;;;30.49;41.78;95361.28;5116119;28;20439;-81
2023/07/10 08:27:14;;;;;;;6.40;5.80;;;;;;;30.51;42.46;95359.13;5115988;28;20815;-81
2023/07/10 08:29:42;;;;;;;7.80;5.97;;;;;;;30.51;42.83;95369.16;5116041;28;20454;-81
2023/07/10 08:32:09;;;;;;;6.63;5.90;;;;;;;30.41;42.13;95352.72;5115923;28;20924;-83
2023/07/10 08:34:36;;;;;;;6.37;5.77;;;;;;;30.58;42.74;95363.56;5115772;28;20495;-81
2023/07/10 08:37:03;;;;;;;8.70;5.10;;;;;;;30.59;40.34;95357.91;5115780;28;20992;-80
2023/07/10 08:39:30;;;;;;;6.00;5.50;;;;;;;30.41;41.36;95364.38;5115809;28;20435;-81
2023/07/10 08:42:01;;;;;;;7.53;6.27;;;;;;;30.33;42.78;95361.22;5063892;28;20486;-81
2023/07/10 08:44:32;;;;;;;8.40;6.00;;;;;;;30.30;41.45;95359.00;5115945;28;20917;-81
2023/07/10 08:47:03;;;;;;;5.83;5.43;;;;;;;30.36;40.86;95360.72;5115852;28;20533;-80
2023/07/10 08:49:35;;;;;;;5.43;5.03;;;;;;;30.46;41.33;95361.75;5115857;28;20447;-81
2023/07/10 08:52:07;;;;;;;5.30;4.87;;;;;;;30.38;41.58;95358.63;5115347;28;20439;-81
2023/07/10 08:54:35;;;;;;;7.20;5.63;;;;;;;30.53;43.41;95356.19;5115387;28;20574;-80
2023/07/10 08:57:13;;;;;;;6.03;5.43;;;;;;;30.61;41.17;95363.13;5115579;28;20458;-80
2023/07/10 08:59:48;;;;;;;5.93;5.43;;;;;;;30.45;40.46;95362.00;5115584;28;20447;-80
2023/07/10 09:02:37;;;;;;;7.23;4.60;;;;;;;30.02;41.40;95363.28;5115523;28;20449;-81
2023/07/10 09:05:06;;;;;;;6.00;5.50;;;;;;;29.90;41.43;95365.22;5114457;28;20487;-80
2023/07/10 09:07:39;;;;;;;6.23;5.53;;;;;;;30.04;41.54;95355.78;5115515;28;20439;-80
2023/07/10 09:10:12;;;;;;;8.13;5.77;;;;;;;30.25;42.04;95350.78;5115318;28;20446;-80
2023/07/10 09:12:42;;;;;;;6.17;5.60;;;;;;;30.17;41.45;95344.69;5115386;28;20447;-80
2023/07/10 09:15:13;;;;;;;5.00;4.60;;;;;;;30.21;41.95;95342.31;5114860;28;20489;-80
2023/07/10 09:17:54;;;;;;;5.13;4.73;;;;;;;29.72;39.98;95343.72;5115459;28;20444;-81
2023/07/10 09:20:24;;;;;;;5.43;5.03;;;;;;;29.55;41.57;95343.63;5114985;28;20445;-82
2023/07/10 09:22:56;;;;;;;9.80;5.47;;;;;;;29.66;40.85;95342.78;5114767;28;20431;-80
2023/07/10 09:25:24;;;;;;;6.23;5.27;;;;;;;29.71;40.88;95339.34;5114582;28;20447;-81
2023/07/10 09:27:51;;;;;;;5.90;5.50;;;;;;;29.78;42.46;95335.47;5115274;28;20975;-80
2023/07/10 09:30:52;;;;;;;6.47;5.60;;;;;;;29.61;42.68;95342.69;5114506;28;20947;-80
2023/07/10 09:33:22;;;;;;;6.20;5.10;;;;;;;29.29;41.84;95339.50;5114354;28;20540;-81
2023/07/10 09:35:50;;;;;;;5.63;5.17;;;;;;;29.17;41.97;95335.94;5114633;28;20478;-80
2023/07/10 09:38:19;;;;;;;5.83;4.93;;;;;;;29.03;42.31;95337.25;5114343;28;20439;-80
2023/07/10 09:40:48;;;;;;;7.20;5.30;;;;;;;28.91;42.99;95332.69;5114373;28;20454;-80
2023/07/10 09:43:17;;;;;;;4.60;4.27;;;;;;;29.09;41.63;95328.22;5114456;28;20447;-81
2023/07/10 09:45:47;;;;;;;5.70;5.20;;;;;;;29.21;41.98;95331.75;5114372;28;20929;-81
2023/07/10 09:48:19;;;;;;;5.27;4.40;;;;;;;29.38;40.02;95327.25;5115441;28;20461;-81
2023/07/10 09:50:50;;;;;;;5.00;4.70;;;;;;;29.45;39.42;95327.97;5115125;28;20795;-80
2023/07/10 09:53:32;;;;;;;5.63;5.13;;;;;;;29.55;40.31;95332.81;5114651;28;20830;-80
2023/07/10 09:55:59;;;;;;;5.60;5.10;;;;;;;29.42;40.92;95327.59;5114707;28;20446;-80
2023/07/10 09:58:26;;;;;;;6.03;4.90;;;;;;;29.14;40.89;95331.84;5114301;28;20439;-79
2023/07/10 10:00:53;;;;;;;5.93;5.43;;;;;;;28.88;39.63;95316.06;5115303;28;20443;-82
2023/07/10 10:03:26;;;;;;;6.90;5.07;;;;;;;28.81;41.05;95305.34;5115695;28;20443;-79
2023/07/10 10:05:56;;;;;;;7.33;4.50;;;;;;;28.78;40.50;95310.41;5114805;28;20443;-81
2023/07/10 10:08:34;;;;;;;5.27;4.77;;;;;;;28.78;40.21;95313.94;5115354;28;20804;-80
2023/07/10 10:11:06;;;;;;;5.00;4.50;;;;;;;28.89;39.58;95307.75;5113869;28;20439;-79
2023/07/10 10:13:38;;;;;;;10.93;4.97;;;;;;;29.08;40.47;95304.94;5113720;28;20497;-79
2023/07/10 10:16:09;;;;;;;14.33;5.10;;;;;;;29.13;42.01;95296.94;5113794;28;20439;-78
2023/07/10 10:18:43;;;;;;;4.63;4.20;;;;;;;29.19;40.70;95306.81;5114019;28;20431;-79
2023/07/10 10:21:14;;;;;;;5.87;5.10;;;;;;;29.33;39.14;95294.72;5113661;28;20917;-80
2023/07/10 10:23:43;;;;;;;4.83;4.43;;;;;;;29.44;39.63;95285.78;5113688;28;20447;-79
2023/07/10 10:26:33;;;;;;;9.70;4.67;;;;;;;29.51;38.58;95285.66;5113381;28;20439;-80
2023/07/10 10:30:00;;;;;;;5.20;4.80;;;;;;;29.65;38.30;95289.75;5112944;28;20435;-80
2023/07/10 10:32:36;;;;;;;4.53;4.13;;;;;;;29.73;36.59;95278.53;4972170;28;20941;-79
2023/07/10 10:35:15;;;;;;;9.50;4.73;;;;;;;29.76;37.49;95275.34;4971918;28;20569;-79
2023/07/10 10:37:58;;;;;;;4.60;4.10;;;;;;;29.75;36.38;95283.69;4972564;28;20456;-80
2023/07/10 10:40:38;;;;;;;4.90;4.47;;;;;;;29.69;36.72;95271.13;4972359;28;20445;-80
2023/07/10 10:43:25;;;;;;;4.20;3.90;;;;;;;29.81;36.63;95275.47;4971865;28;20441;-80
2023/07/10 10:45:59;;;;;;;5.07;4.67;;;;;;;29.65;35.75;95278.91;4971966;28;20445;-80
2023/07/10 10:48:34;;;;;;;6.37;4.97;;;;;;;29.67;35.94;95281.38;4971904;28;20454;-80
2023/07/10 10:51:06;;;;;;;5.30;4.90;;;;;;;29.72;36.23;95273.38;4971989;28;20955;-79
2023/07/10 10:53:44;;;;;;;6.63;4.40;;;;;;;29.69;35.51;95274.66;4971755;28;20553;-78
2023/07/10 10:56:19;;;;;;;7.47;4.47;;;;;;;29.73;35.04;95281.25;4971789;28;20554;-80
2023/07/10 10:58:55;;;;;;;4.90;4.50;;;;;;;29.72;34.13;95267.94;4971884;28;20449;-79
2023/07/10 11:01:32;;;;;;;5.13;4.73;;;;;;;29.81;35.97;95269.25;4971617;28;20445;-81
2023/07/10 11:04:10;;;;;;;5.43;4.90;;;;;;;29.86;34.66;95264.75;5028607;28;20509;-79
2023/07/10 11:06:56;;;;;;;4.97;4.57;;;;;;;29.70;34.55;95265.50;5030192;28;20453;-81
2023/07/10 11:09:30;;;;;;;4.70;4.10;;;;;;;29.78;36.74;95251.59;5111480;28;20447;-79
2023/07/10 11:11:59;;;;;;;4.40;4.10;;;;;;;29.77;34.57;95249.13;5114980;28;20803;-80
2023/07/10 11:14:26;;;;;;;4.97;4.57;;;;;;;29.75;34.55;95252.06;5114995;28;20552;-79
2023/07/10 11:16:54;;;;;;;7.30;4.87;;;;;;;29.76;35.63;95252.88;5079238;28;20446;-81
2023/07/10 11:19:25;;;;;;;6.13;4.57;;;;;;;29.79;35.71;95253.25;5113086;28;20442;-81
2023/07/10 11:21:53;;;;;;;5.60;4.27;;;;;;;29.87;36.33;95249.31;5113080;28;20450;-80
2023/07/10 11:24:35;;;;;;;7.33;5.03;;;;;;;30.04;36.35;95244.78;5113166;28;20478;-80
2023/07/10 11:27:11;;;;;;;5.40;4.90;;;;;;;30.05;35.42;95241.03;5094372;28;20455;-81
2023/07/10 11:29:41;;;;;;;13.73;5.27;;;;;;;30.03;36.50;95242.34;5115773;28;20438;-81
2023/07/10 11:32:17;;;;;;;5.63;4.73;;;;;;;29.84;36.09;95249.81;5119677;28;20538;-82
2023/07/10 11:34:53;;;;;;;6.70;5.03;;;;;;;29.90;36.31;95235.31;5118043;28;20581;-80
2023/07/10 11:37:54;;;;;;;4.80;4.37;;;;;;;29.92;36.47;95242.13;5117716;28;20446;-81
2023/07/10 11:40:46;;;;;;;6.30;5.10;;;;;;;29.79;37.01;95236.19;5118124;28;20437;-81
2023/07/10 11:43:49;;;;;;;7.80;5.63;;;;;;;29.78;36.88;95237.22;5124340;28;20443;-79